sensor_id;sensor_type;location;lat;lon;timestamp;pressure;altitude;pressure_sealevel;temperature;humidity
43161;BME280;40968;52.342;5.528;2023-02-24T00:01:52;101627.16;;;3.76;75.66
43161;BME280;40968;52.342;5.528;2023-02-24T00:04:24;101466.75;;;2.84;76.19
43161;BME280;40968;52.342;5.528;2023-02-24T00:06:51;101626.25;;;3.77;76.44
43161;BME280;40968;52.342;5.528;2023-02-24T00:09:21;101619.28;;;3.75;75.44
43161;BME280;40968;52.342;5.528;2023-02-24T00:11:52;101621.09;;;3.73;75.89
43161;BME280;40968;52.342;5.528;2023-02-24T00:14:20;101614.03;;;3.72;76.60
43161;BME280;40968;52.342;5.528;2023-02-24T00:16:47;101458.06;;;2.79;76.01
43161;BME280;40968;52.342;5.528;2023-02-24T00:19:15;101596.72;;;3.61;75.52
43161;BME280;40968;52.342;5.528;2023-02-24T00:21:44;101435.75;;;2.59;75.24
43161;BME280;40968;52.342;5.528;2023-02-24T00:24:11;101602.19;;;3.57;75.04
43161;BME280;40968;52.342;5.528;2023-02-24T00:26:40;101558.13;;;3.26;75.84
43161;BME280;40968;52.342;5.528;2023-02-24T00:29:09;101435.75;;;2.59;77.24
43161;BME280;40968;52.342;5.528;2023-02-24T00:31:37;101598.56;;;3.59;77.44
43161;BME280;40968;52.342;5.528;2023-02-24T00:34:07;101594.13;;;3.60;77.90
43161;BME280;40968;52.342;5.528;2023-02-24T00:36:34;101555.88;;;3.40;78.45
43161;BME280;40968;52.342;5.528;2023-02-24T00:39:04;101584.41;;;3.60;78.10
43161;BME280;40968;52.342;5.528;2023-02-24T00:41:35;101548.91;;;3.38;77.18
43161;BME280;40968;52.342;5.528;2023-02-24T00:44:06;101426.59;;;2.70;76.89
43161;BME280;40968;52.342;5.528;2023-02-24T00:46:35;101541.19;;;3.30;77.41
43161;BME280;40968;52.342;5.528;2023-02-24T00:49:03;101579.41;;;3.51;76.16
43161;BME280;40968;52.342;5.528;2023-02-24T00:51:33;101515.25;;;3.13;75.99
43161;BME280;40968;52.342;5.528;2023-02-24T00:54:01;101578.56;;;3.49;76.40
43161;BME280;40968;52.342;5.528;2023-02-24T00:56:29;101518.63;;;3.18;76.37
43161;BME280;40968;52.342;5.528;2023-02-24T00:58:57;101551.16;;;3.50;76.58
43161;BME280;40968;52.342;5.528;2023-02-24T01:01:26;101547.59;;;3.51;76.82
43161;BME280;40968;52.342;5.528;2023-02-24T01:03:54;101520.66;;;3.37;77.35
43161;BME280;40968;52.342;5.528;2023-02-24T01:06:23;101470.38;;;3.08;76.21
43161;BME280;40968;52.342;5.528;2023-02-24T01:08:51;101493.75;;;3.22;76.13
43161;BME280;40968;52.342;5.528;2023-02-24T01:11:21;101435.75;;;2.88;76.56
43161;BME280;40968;52.342;5.528;2023-02-24T01:14:07;101515.53;;;3.32;76.76
43161;BME280;40968;52.342;5.528;2023-02-24T01:16:36;101525.97;;;3.37;75.71
43161;BME280;40968;52.342;5.528;2023-02-24T01:19:03;101518.19;;;3.32;74.80
43161;BME280;40968;52.342;5.528;2023-02-24T01:21:30;101345.03;;;2.27;74.82
43161;BME280;40968;52.342;5.528;2023-02-24T01:23:57;101460.09;;;2.99;73.95
43161;BME280;40968;52.342;5.528;2023-02-24T01:26:24;101470.47;;;3.05;73.75
43161;BME280;40968;52.342;5.528;2023-02-24T01:28:52;101472.22;;;3.06;73.80
43161;BME280;40968;52.342;5.528;2023-02-24T01:31:20;101473.22;;;3.02;73.27
43161;BME280;40968;52.342;5.528;2023-02-24T01:33:49;101489.59;;;3.15;73.74
43161;BME280;40968;52.342;5.528;2023-02-24T01:36:18;101487.91;;;3.12;73.56
43161;BME280;40968;52.342;5.528;2023-02-24T01:38:46;101429.84;;;2.79;73.39
43161;BME280;40968;52.342;5.528;2023-02-24T01:41:15;101484.41;;;3.12;74.26
43161;BME280;40968;52.342;5.528;2023-02-24T01:43:56;101477.44;;;3.09;73.81
43161;BME280;40968;52.342;5.528;2023-02-24T01:46:24;101327.66;;;2.20;73.43
43161;BME280;40968;52.342;5.528;2023-02-24T01:48:54;101469.50;;;3.08;74.53
43161;BME280;40968;52.342;5.528;2023-02-24T01:51:23;101431.41;;;2.85;75.05
43161;BME280;40968;52.342;5.528;2023-02-24T01:53:51;101404.47;;;2.72;75.00
43161;BME280;40968;52.342;5.528;2023-02-24T01:56:19;101171.75;;;1.32;75.08
43161;BME280;40968;52.342;5.528;2023-02-24T01:58:46;101300.41;;;2.17;75.02
43161;BME280;40968;52.342;5.528;2023-02-24T02:01:14;101400.06;;;2.73;74.81
43161;BME280;40968;52.342;5.528;2023-02-24T02:03:41;101437.94;;;3.02;74.86
43161;BME280;40968;52.342;5.528;2023-02-24T02:06:12;101349.66;;;2.49;74.56
43161;BME280;40968;52.342;5.528;2023-02-24T02:08:43;101388.63;;;2.71;74.84
43161;BME280;40968;52.342;5.528;2023-02-24T02:11:12;101433.63;;;2.99;74.64
43161;BME280;40968;52.342;5.528;2023-02-24T02:13:41;101423.28;;;2.91;75.02
43161;BME280;40968;52.342;5.528;2023-02-24T02:16:34;101423.88;;;2.99;76.13
43161;BME280;40968;52.342;5.528;2023-02-24T02:19:19;101369.31;;;2.69;75.75
43161;BME280;40968;52.342;5.528;2023-02-24T02:22:02;101417.81;;;2.96;75.38
43161;BME280;40968;52.342;5.528;2023-02-24T02:24:40;101364.97;;;2.66;74.94
43161;BME280;40968;52.342;5.528;2023-02-24T02:27:25;101339.16;;;2.46;74.73
43161;BME280;40968;52.342;5.528;2023-02-24T02:30:18;101410.13;;;2.88;75.45
43161;BME280;40968;52.342;5.528;2023-02-24T02:33:15;101342.50;;;2.51;76.06
43161;BME280;40968;52.342;5.528;2023-02-24T02:35:56;101378.81;;;2.74;75.61
43161;BME280;40968;52.342;5.528;2023-02-24T02:38:29;101403.19;;;2.84;74.70
43161;BME280;40968;52.342;5.528;2023-02-24T02:41:04;101403.31;;;2.81;74.70
43161;BME280;40968;52.342;5.528;2023-02-24T02:43:36;101320.41;;;2.25;74.10
43161;BME280;40968;52.342;5.528;2023-02-24T02:46:07;101386.72;;;2.76;74.13
43161;BME280;40968;52.342;5.528;2023-02-24T02:48:44;101381.47;;;2.74;74.33
43161;BME280;40968;52.342;5.528;2023-02-24T02:51:16;101379.78;;;2.72;74.27
43161;BME280;40968;52.342;5.528;2023-02-24T02:53:45;101382.50;;;2.70;73.95
43161;BME280;40968;52.342;5.528;2023-02-24T02:56:18;101379.84;;;2.70;73.96
43161;BME280;40968;52.342;5.528;2023-02-24T02:58:50;101343.13;;;2.59;73.86
43161;BME280;40968;52.342;5.528;2023-02-24T03:01:19;101370.22;;;2.68;73.79
43161;BME280;40968;52.342;5.528;2023-02-24T03:03:49;101361.44;;;2.65;74.09
43161;BME280;40968;52.342;5.528;2023-02-24T03:06:22;101354.41;;;2.66;74.73
43161;BME280;40968;52.342;5.528;2023-02-24T03:08:54;101359.72;;;2.64;74.25
43161;BME280;40968;52.342;5.528;2023-02-24T03:11:23;101307.63;;;2.40;74.23
43161;BME280;40968;52.342;5.528;2023-02-24T03:13:54;101316.34;;;2.42;74.22
43161;BME280;40968;52.342;5.528;2023-02-24T03:16:23;101192.50;;;1.73;74.26
43161;BME280;40968;52.342;5.528;2023-02-24T03:18:54;101347.41;;;2.63;74.53
43161;BME280;40968;52.342;5.528;2023-02-24T03:21:27;101287.56;;;2.32;74.70
43161;BME280;40968;52.342;5.528;2023-02-24T03:23:58;101301.19;;;2.47;74.58
43161;BME280;40968;52.342;5.528;2023-02-24T03:26:30;101220.75;;;1.99;73.99
43161;BME280;40968;52.342;5.528;2023-02-24T03:29:04;101279.50;;;2.36;74.06
43161;BME280;40968;52.342;5.528;2023-02-24T03:31:39;101258.66;;;2.26;74.18
43161;BME280;40968;52.342;5.528;2023-02-24T03:34:10;101317.28;;;2.68;74.24
43161;BME280;40968;52.342;5.528;2023-02-24T03:36:40;101279.19;;;2.45;74.08
43161;BME280;40968;52.342;5.528;2023-02-24T03:39:07;101312.84;;;2.68;73.88
43161;BME280;40968;52.342;5.528;2023-02-24T03:41:39;101260.69;;;2.45;73.72
43161;BME280;40968;52.342;5.528;2023-02-24T03:44:09;101305.81;;;2.67;74.46
43161;BME280;40968;52.342;5.528;2023-02-24T03:46:36;101159.59;;;1.83;74.26
43161;BME280;40968;52.342;5.528;2023-02-24T03:49:08;101297.84;;;2.69;74.19
43161;BME280;40968;52.342;5.528;2023-02-24T03:51:43;101300.53;;;2.67;73.54
43161;BME280;40968;52.342;5.528;2023-02-24T03:54:21;101293.53;;;2.66;73.46
43161;BME280;40968;52.342;5.528;2023-02-24T03:57:05;101271.97;;;2.50;74.23
43161;BME280;40968;52.342;5.528;2023-02-24T03:59:51;101290.81;;;2.68;74.05
43161;BME280;40968;52.342;5.528;2023-02-24T04:02:25;101298.75;;;2.68;74.25
43161;BME280;40968;52.342;5.528;2023-02-24T04:04:58;101292.59;;;2.67;74.11
43161;BME280;40968;52.342;5.528;2023-02-24T04:07:36;101274.94;;;2.68;73.89
43161;BME280;40968;52.342;5.528;2023-02-24T04:10:08;101280.16;;;2.69;73.70
43161;BME280;40968;52.342;5.528;2023-02-24T04:12:41;101271.38;;;2.69;73.66
43161;BME280;40968;52.342;5.528;2023-02-24T04:15:15;101268.72;;;2.69;73.27
43161;BME280;40968;52.342;5.528;2023-02-24T04:17:46;101262.50;;;2.70;73.43
43161;BME280;40968;52.342;5.528;2023-02-24T04:20:16;101109.69;;;1.74;73.28
43161;BME280;40968;52.342;5.528;2023-02-24T04:22:47;101217.44;;;2.46;73.03
43161;BME280;40968;52.342;5.528;2023-02-24T04:25:16;101250.16;;;2.70;73.17
43161;BME280;40968;52.342;5.528;2023-02-24T04:27:44;101222.34;;;2.57;72.96
43161;BME280;40968;52.342;5.528;2023-02-24T04:30:12;101075.34;;;1.74;73.36
43161;BME280;40968;52.342;5.528;2023-02-24T04:32:39;101197.03;;;2.49;73.80
43161;BME280;40968;52.342;5.528;2023-02-24T04:35:12;101203.88;;;2.55;73.33
43161;BME280;40968;52.342;5.528;2023-02-24T04:37:39;101231.63;;;2.70;72.90
43161;BME280;40968;52.342;5.528;2023-02-24T04:40:11;101222.78;;;2.70;72.74
43161;BME280;40968;52.342;5.528;2023-02-24T04:42:40;101230.72;;;2.70;72.79
43161;BME280;40968;52.342;5.528;2023-02-24T04:45:12;101168.97;;;2.20;72.50
43161;BME280;40968;52.342;5.528;2023-02-24T04:47:40;101226.41;;;2.67;72.47
43161;BME280;40968;52.342;5.528;2023-02-24T04:50:10;101217.63;;;2.67;72.36
43161;BME280;40968;52.342;5.528;2023-02-24T04:52:47;101215.88;;;2.65;72.57
43161;BME280;40968;52.342;5.528;2023-02-24T04:55:16;101119.00;;;2.11;72.40
43161;BME280;40968;52.342;5.528;2023-02-24T04:57:43;101171.56;;;2.47;73.01
43161;BME280;40968;52.342;5.528;2023-02-24T05:00:11;101189.47;;;2.64;73.06
43161;BME280;40968;52.342;5.528;2023-02-24T05:02:46;101187.75;;;2.63;72.53
43161;BME280;40968;52.342;5.528;2023-02-24T05:05:14;101185.16;;;2.61;72.72
43161;BME280;40968;52.342;5.528;2023-02-24T05:07:40;101183.44;;;2.60;72.56
43161;BME280;40968;52.342;5.528;2023-02-24T05:10:11;101183.53;;;2.57;72.43
43161;BME280;40968;52.342;5.528;2023-02-24T05:12:39;101168.56;;;2.56;72.43
43161;BME280;40968;52.342;5.528;2023-02-24T05:15:07;101107.31;;;2.18;72.37
43161;BME280;40968;52.342;5.528;2023-02-24T05:17:34;101165.94;;;2.56;72.84
43161;BME280;40968;52.342;5.528;2023-02-24T05:20:00;101131.28;;;2.39;72.46
43161;BME280;40968;52.342;5.528;2023-02-24T05:22:48;101126.06;;;2.37;72.82
43161;BME280;40968;52.342;5.528;2023-02-24T05:25:16;101111.19;;;2.33;72.90
43161;BME280;40968;52.342;5.528;2023-02-24T05:27:44;100966.00;;;1.51;72.74
43161;BME280;40968;52.342;5.528;2023-02-24T05:30:12;101122.38;;;2.41;72.43
43161;BME280;40968;52.342;5.528;2023-02-24T05:32:39;101046.13;;;2.04;72.66
43161;BME280;40968;52.342;5.528;2023-02-24T05:35:06;100935.66;;;1.38;72.75
43161;BME280;40968;52.342;5.528;2023-02-24T05:37:36;101090.16;;;2.30;72.82
43161;BME280;40968;52.342;5.528;2023-02-24T05:40:07;101120.16;;;2.54;72.72
43161;BME280;40968;52.342;5.528;2023-02-24T05:42:37;101069.84;;;2.30;73.08
43161;BME280;40968;52.342;5.528;2023-02-24T05:45:07;100961.13;;;1.65;73.11
43161;BME280;40968;52.342;5.528;2023-02-24T05:47:35;101084.25;;;2.47;73.12
43161;BME280;40968;52.342;5.528;2023-02-24T05:50:01;101083.13;;;2.54;73.03
43161;BME280;40968;52.342;5.528;2023-02-24T05:52:28;100909.91;;;1.44;73.04
43161;BME280;40968;52.342;5.528;2023-02-24T05:54:55;101010.44;;;2.15;73.25
43161;BME280;40968;52.342;5.528;2023-02-24T05:57:21;101066.28;;;2.55;73.20
43161;BME280;40968;52.342;5.528;2023-02-24T05:59:51;101018.88;;;2.25;73.40
43161;BME280;40968;52.342;5.528;2023-02-24T06:02:21;101065.38;;;2.56;73.22
43161;BME280;40968;52.342;5.528;2023-02-24T06:04:52;101008.22;;;2.28;73.43
43161;BME280;40968;52.342;5.528;2023-02-24T06:07:21;100995.25;;;2.21;73.22
43161;BME280;40968;52.342;5.528;2023-02-24T06:09:50;101052.22;;;2.55;73.56
43161;BME280;40968;52.342;5.528;2023-02-24T06:12:18;101058.28;;;2.57;73.08
43161;BME280;40968;52.342;5.528;2023-02-24T06:14:45;100925.28;;;1.82;73.20
43161;BME280;40968;52.342;5.528;2023-02-24T06:17:12;101045.03;;;2.58;73.52
43161;BME280;40968;52.342;5.528;2023-02-24T06:19:42;101048.47;;;2.60;73.45
43161;BME280;40968;52.342;5.528;2023-02-24T06:22:11;101023.53;;;2.44;73.29
43161;BME280;40968;52.342;5.528;2023-02-24T06:24:39;101005.09;;;2.41;73.60
43161;BME280;40968;52.342;5.528;2023-02-24T06:27:08;101002.34;;;2.44;73.36
43161;BME280;40968;52.342;5.528;2023-02-24T06:29:36;101027.97;;;2.65;73.59
43161;BME280;40968;52.342;5.528;2023-02-24T06:32:03;100850.34;;;1.59;73.61
43161;BME280;40968;52.342;5.528;2023-02-24T06:34:33;100866.63;;;1.72;73.77
43161;BME280;40968;52.342;5.528;2023-02-24T06:37:01;100876.03;;;1.79;73.59
43161;BME280;40968;52.342;5.528;2023-02-24T06:39:28;101009.34;;;2.69;73.80
43161;BME280;40968;52.342;5.528;2023-02-24T06:41:56;100842.00;;;1.72;73.86
43161;BME280;40968;52.342;5.528;2023-02-24T06:44:28;100889.56;;;1.95;73.85
43161;BME280;40968;52.342;5.528;2023-02-24T06:46:54;100932.41;;;2.27;73.81
43161;BME280;40968;52.342;5.528;2023-02-24T06:49:22;100997.72;;;2.73;74.50
43161;BME280;40968;52.342;5.528;2023-02-24T06:51:49;100996.75;;;2.75;73.90
43161;BME280;40968;52.342;5.528;2023-02-24T06:54:17;100955.22;;;2.54;74.21
43161;BME280;40968;52.342;5.528;2023-02-24T06:56:44;100986.03;;;2.78;74.30
43161;BME280;40968;52.342;5.528;2023-02-24T06:59:12;100948.03;;;2.57;74.65
43161;BME280;40968;52.342;5.528;2023-02-24T07:01:46;100913.31;;;2.43;74.31
43161;BME280;40968;52.342;5.528;2023-02-24T07:04:13;100915.84;;;2.46;74.56
43161;BME280;40968;52.342;5.528;2023-02-24T07:06:44;100983.22;;;2.83;75.16
43161;BME280;40968;52.342;5.528;2023-02-24T07:09:13;100947.13;;;2.58;75.30
43161;BME280;40968;52.342;5.528;2023-02-24T07:11:43;100976.28;;;2.79;75.70
43161;BME280;40968;52.342;5.528;2023-02-24T07:14:10;100930.28;;;2.59;75.98
43161;BME280;40968;52.342;5.528;2023-02-24T07:16:38;100939.91;;;2.62;76.08
43161;BME280;40968;52.342;5.528;2023-02-24T07:19:09;100933.06;;;2.56;76.34
43161;BME280;40968;52.342;5.528;2023-02-24T07:21:39;100970.75;;;2.85;76.64
43161;BME280;40968;52.342;5.528;2023-02-24T07:24:08;100973.41;;;2.85;76.64
43161;BME280;40968;52.342;5.528;2023-02-24T07:26:38;100798.91;;;1.70;76.77
43161;BME280;40968;52.342;5.528;2023-02-24T07:29:08;100923.34;;;2.57;76.67
43161;BME280;40968;52.342;5.528;2023-02-24T07:31:36;100966.22;;;2.89;77.05
43161;BME280;40968;52.342;5.528;2023-02-24T07:34:03;100808.41;;;1.97;77.43
43161;BME280;40968;52.342;5.528;2023-02-24T07:36:30;100891.78;;;2.52;77.48
43161;BME280;40968;52.342;5.528;2023-02-24T07:39:04;100925.44;;;2.71;77.73
43161;BME280;40968;52.342;5.528;2023-02-24T07:41:33;100902.06;;;2.60;77.89
43161;BME280;40968;52.342;5.528;2023-02-24T07:44:01;100957.06;;;2.96;78.04
43161;BME280;40968;52.342;5.528;2023-02-24T07:46:31;100821.94;;;2.12;78.24
43161;BME280;40968;52.342;5.528;2023-02-24T07:48:58;100906.75;;;2.75;78.45
43161;BME280;40968;52.342;5.528;2023-02-24T07:51:26;100927.72;;;2.80;78.50
43161;BME280;40968;52.342;5.528;2023-02-24T07:53:55;100897.25;;;2.70;78.81
43161;BME280;40968;52.342;5.528;2023-02-24T07:56:24;100945.72;;;2.94;78.98
43161;BME280;40968;52.342;5.528;2023-02-24T07:58:53;100941.94;;;2.99;79.12
43161;BME280;40968;52.342;5.528;2023-02-24T08:01:24;100933.06;;;3.01;79.09
43161;BME280;40968;52.342;5.528;2023-02-24T08:03:54;100794.44;;;2.16;79.44
43161;BME280;40968;52.342;5.528;2023-02-24T08:06:22;100882.13;;;2.73;79.47
43161;BME280;40968;52.342;5.528;2023-02-24T08:08:54;100825.22;;;2.41;79.62
43161;BME280;40968;52.342;5.528;2023-02-24T08:11:26;100925.66;;;3.09;79.90
43161;BME280;40968;52.342;5.528;2023-02-24T08:13:59;100717.25;;;1.86;79.56
43161;BME280;40968;52.342;5.528;2023-02-24T08:16:27;100911.50;;;3.10;79.99
43161;BME280;40968;52.342;5.528;2023-02-24T08:19:05;100744.34;;;2.13;80.21
43161;BME280;40968;52.342;5.528;2023-02-24T08:21:32;100840.75;;;2.71;80.26
43161;BME280;40968;52.342;5.528;2023-02-24T08:24:03;100804.22;;;2.58;80.18
43161;BME280;40968;52.342;5.528;2023-02-24T08:26:30;100896.28;;;3.15;80.05
43161;BME280;40968;52.342;5.528;2023-02-24T08:28:57;100901.50;;;3.17;80.71
43161;BME280;40968;52.342;5.528;2023-02-24T08:31:23;100640.53;;;1.65;80.72
43161;BME280;40968;52.342;5.528;2023-02-24T08:33:50;100893.44;;;3.20;80.72
43161;BME280;40968;52.342;5.528;2023-02-24T08:36:21;100762.53;;;2.43;80.79
43161;BME280;40968;52.342;5.528;2023-02-24T08:38:51;100858.78;;;3.04;81.02
43161;BME280;40968;52.342;5.528;2023-02-24T08:41:19;100880.06;;;3.23;81.00
43161;BME280;40968;52.342;5.528;2023-02-24T08:43:53;100805.03;;;2.81;81.17
43161;BME280;40968;52.342;5.528;2023-02-24T08:46:22;100869.25;;;3.27;81.04
43161;BME280;40968;52.342;5.528;2023-02-24T08:48:52;100706.44;;;2.35;81.37
43161;BME280;40968;52.342;5.528;2023-02-24T08:51:23;100873.53;;;3.31;81.77
43161;BME280;40968;52.342;5.528;2023-02-24T08:53:54;100744.56;;;2.72;81.69
43161;BME280;40968;52.342;5.528;2023-02-24T08:56:23;100822.53;;;3.26;82.08
43161;BME280;40968;52.342;5.528;2023-02-24T08:58:52;100802.53;;;3.19;82.26
43161;BME280;40968;52.342;5.528;2023-02-24T09:01:24;100651.63;;;2.18;82.35
43161;BME280;40968;52.342;5.528;2023-02-24T09:03:53;100807.34;;;3.30;82.83
43161;BME280;40968;52.342;5.528;2023-02-24T09:06:24;100799.47;;;3.28;83.28
43161;BME280;40968;52.342;5.528;2023-02-24T09:08:53;100833.88;;;3.49;83.62
43161;BME280;40968;52.342;5.528;2023-02-24T09:11:36;100831.31;;;3.47;84.03
43161;BME280;40968;52.342;5.528;2023-02-24T09:14:08;100717.69;;;2.81;84.41
43161;BME280;40968;52.342;5.528;2023-02-24T09:16:42;100745.81;;;3.04;84.78
43161;BME280;40968;52.342;5.528;2023-02-24T09:19:27;100783.44;;;3.31;85.34
43161;BME280;40968;52.342;5.528;2023-02-24T09:22:28;100776.50;;;3.29;85.75
43161;BME280;40968;52.342;5.528;2023-02-24T09:24:57;100806.31;;;3.53;86.02
43161;BME280;40968;52.342;5.528;2023-02-24T09:27:38;100711.66;;;2.98;86.37
43161;BME280;40968;52.342;5.528;2023-02-24T09:30:07;100595.06;;;2.41;86.58
43161;BME280;40968;52.342;5.528;2023-02-24T09:32:50;100732.47;;;3.26;86.90
43161;BME280;40968;52.342;5.528;2023-02-24T09:35:25;100569.91;;;2.32;87.19
43161;BME280;40968;52.342;5.528;2023-02-24T09:37:56;100727.94;;;3.28;87.51
43161;BME280;40968;52.342;5.528;2023-02-24T09:40:25;100673.66;;;2.99;87.78
43161;BME280;40968;52.342;5.528;2023-02-24T09:43:07;100738.63;;;3.46;88.10
43161;BME280;40968;52.342;5.528;2023-02-24T09:45:45;100605.44;;;2.66;88.35
43161;BME280;40968;52.342;5.528;2023-02-24T09:48:21;100780.75;;;3.71;88.68
43161;BME280;40968;52.342;5.528;2023-02-24T09:50:50;100727.16;;;3.45;88.82
43161;BME280;40968;52.342;5.528;2023-02-24T09:53:33;100772.56;;;3.76;89.01
43161;BME280;40968;52.342;5.528;2023-02-24T09:56:19;100752.09;;;3.60;89.12
43161;BME280;40968;52.342;5.528;2023-02-24T09:58:51;100763.69;;;3.77;89.40
43161;BME280;40968;52.342;5.528;2023-02-24T10:01:30;100737.13;;;3.59;89.46
43161;BME280;40968;52.342;5.528;2023-02-24T10:04:02;100767.91;;;3.81;89.68
43161;BME280;40968;52.342;5.528;2023-02-24T10:06:37;100765.13;;;3.84;89.73
43161;BME280;40968;52.342;5.528;2023-02-24T10:09:12;100757.03;;;3.87;89.82
43161;BME280;40968;52.342;5.528;2023-02-24T10:11:47;100696.09;;;3.49;90.01
43161;BME280;40968;52.342;5.528;2023-02-24T10:14:33;100754.22;;;3.90;90.33
43161;BME280;40968;52.342;5.528;2023-02-24T10:17:09;100727.75;;;3.71;90.25
43161;BME280;40968;52.342;5.528;2023-02-24T10:19:48;100698.22;;;3.60;90.60
43161;BME280;40968;52.342;5.528;2023-02-24T10:22:24;100736.16;;;3.98;90.65
43161;BME280;40968;52.342;5.528;2023-02-24T10:24:59;100735.94;;;4.03;90.67
43161;BME280;40968;52.342;5.528;2023-02-24T10:27:42;100593.94;;;3.24;90.64
43161;BME280;40968;52.342;5.528;2023-02-24T10:30:27;100727.59;;;4.11;90.88
43161;BME280;40968;52.342;5.528;2023-02-24T10:33:13;100546.06;;;3.10;90.95
43161;BME280;40968;52.342;5.528;2023-02-24T10:35:41;100731.69;;;4.18;91.16
43161;BME280;40968;52.342;5.528;2023-02-24T10:38:08;100684.97;;;3.96;91.12
43161;BME280;40968;52.342;5.528;2023-02-24T10:40:45;100718.09;;;4.24;91.42
43161;BME280;40968;52.342;5.528;2023-02-24T10:43:23;100713.59;;;4.26;91.45
43161;BME280;40968;52.342;5.528;2023-02-24T10:45:55;100692.19;;;4.29;91.50
43161;BME280;40968;52.342;5.528;2023-02-24T10:48:32;100647.72;;;4.00;91.63
43161;BME280;40968;52.342;5.528;2023-02-24T10:51:09;100675.44;;;4.11;91.66
43161;BME280;40968;52.342;5.528;2023-02-24T10:53:36;100623.66;;;3.85;91.53
43161;BME280;40968;52.342;5.528;2023-02-24T10:56:08;100708.59;;;4.38;91.72
43161;BME280;40968;52.342;5.528;2023-02-24T10:59:02;100638.03;;;3.98;91.77
43161;BME280;40968;52.342;5.528;2023-02-24T11:01:52;100669.66;;;4.21;91.82
43161;BME280;40968;52.342;5.528;2023-02-24T11:04:36;100574.22;;;3.67;91.87
43161;BME280;40968;52.342;5.528;2023-02-24T11:07:19;100713.28;;;4.50;92.08
43161;BME280;40968;52.342;5.528;2023-02-24T11:10:18;100622.28;;;4.13;91.91
43161;BME280;40968;52.342;5.528;2023-02-24T11:12:53;100675.03;;;4.54;92.13
43161;BME280;40968;52.342;5.528;2023-02-24T11:15:43;100676.53;;;4.60;92.08
43161;BME280;40968;52.342;5.528;2023-02-24T11:18:29;100630.69;;;4.39;92.24
43161;BME280;40968;52.342;5.528;2023-02-24T11:20:58;100672.38;;;4.72;92.34
43161;BME280;40968;52.342;5.528;2023-02-24T11:23:28;100611.19;;;4.40;92.25
43161;BME280;40968;52.342;5.528;2023-02-24T11:25:58;100659.00;;;4.73;92.18
43161;BME280;40968;52.342;5.528;2023-02-24T11:28:42;100640.50;;;4.72;92.50
43161;BME280;40968;52.342;5.528;2023-02-24T11:31:22;100593.66;;;4.53;92.44
43161;BME280;40968;52.342;5.528;2023-02-24T11:33:59;100535.22;;;4.21;92.36
43161;BME280;40968;52.342;5.528;2023-02-24T11:36:36;100531.78;;;4.19;92.25
43161;BME280;40968;52.342;5.528;2023-02-24T11:39:17;100609.16;;;4.78;92.35
43161;BME280;40968;52.342;5.528;2023-02-24T11:41:51;100651.72;;;5.10;92.37
43161;BME280;40968;52.342;5.528;2023-02-24T11:44:25;100657.22;;;5.23;92.41
43161;BME280;40968;52.342;5.528;2023-02-24T11:46:55;100551.25;;;4.69;92.27
43161;BME280;40968;52.342;5.528;2023-02-24T11:49:27;100603.38;;;5.04;92.24
43161;BME280;40968;52.342;5.528;2023-02-24T11:51:57;100599.44;;;5.11;92.17
43161;BME280;40968;52.342;5.528;2023-02-24T11:54:26;100605.78;;;5.24;92.10
43161;BME280;40968;52.342;5.528;2023-02-24T11:56:58;100501.06;;;4.64;91.92
43161;BME280;40968;52.342;5.528;2023-02-24T11:59:30;100640.06;;;5.61;91.59
43161;BME280;40968;52.342;5.528;2023-02-24T12:02:02;100641.66;;;5.95;91.20
43161;BME280;40968;52.342;5.528;2023-02-24T12:04:35;100612.84;;;6.18;91.24
43161;BME280;40968;52.342;5.528;2023-02-24T12:07:06;100560.28;;;6.07;90.54
43161;BME280;40968;52.342;5.528;2023-02-24T12:09:37;100619.78;;;6.51;89.37
43161;BME280;40968;52.342;5.528;2023-02-24T12:12:10;100628.50;;;6.53;87.46
43161;BME280;40968;52.342;5.528;2023-02-24T12:14:44;100582.84;;;6.30;85.80
43161;BME280;40968;52.342;5.528;2023-02-24T12:17:17;100615.19;;;6.53;85.12
43161;BME280;40968;52.342;5.528;2023-02-24T12:19:53;100609.50;;;6.59;84.57
43161;BME280;40968;52.342;5.528;2023-02-24T12:22:25;100603.88;;;6.64;84.13
43161;BME280;40968;52.342;5.528;2023-02-24T12:24:54;100565.75;;;6.35;83.90
43161;BME280;40968;52.342;5.528;2023-02-24T12:27:38;100586.13;;;6.50;81.91
43161;BME280;40968;52.342;5.528;2023-02-24T12:30:32;100601.31;;;6.62;82.26
43161;BME280;40968;52.342;5.528;2023-02-24T12:33:25;100595.16;;;6.62;82.89
43161;BME280;40968;52.342;5.528;2023-02-24T12:36:03;100598.75;;;6.61;82.50
43161;BME280;40968;52.342;5.528;2023-02-24T12:38:45;100595.31;;;6.59;81.37
43161;BME280;40968;52.342;5.528;2023-02-24T12:41:32;100579.53;;;6.56;81.51
43161;BME280;40968;52.342;5.528;2023-02-24T12:44:12;100570.31;;;6.61;81.64
43161;BME280;40968;52.342;5.528;2023-02-24T12:46:45;100418.00;;;5.84;81.68
43161;BME280;40968;52.342;5.528;2023-02-24T12:49:28;100552.44;;;6.78;81.64
43161;BME280;40968;52.342;5.528;2023-02-24T12:52:06;100573.84;;;6.91;80.77
43161;BME280;40968;52.342;5.528;2023-02-24T12:54:42;100566.41;;;6.96;78.38
43161;BME280;40968;52.342;5.528;2023-02-24T12:57:16;100578.66;;;7.13;78.88
43161;BME280;40968;52.342;5.528;2023-02-24T12:59:46;100552.38;;;7.07;78.14
43161;BME280;40968;52.342;5.528;2023-02-24T13:02:21;100477.00;;;6.77;77.36
43161;BME280;40968;52.342;5.528;2023-02-24T13:04:55;100389.44;;;6.58;77.07
43161;BME280;40968;52.342;5.528;2023-02-24T13:07:39;100539.75;;;7.78;76.13
43161;BME280;40968;52.342;5.528;2023-02-24T13:10:10;100561.16;;;8.04;75.28
43161;BME280;40968;52.342;5.528;2023-02-24T13:12:48;100517.03;;;7.85;75.34
43161;BME280;40968;52.342;5.528;2023-02-24T13:15:20;100549.84;;;8.13;73.82
43161;BME280;40968;52.342;5.528;2023-02-24T13:17:49;100537.78;;;8.20;74.12
43161;BME280;40968;52.342;5.528;2023-02-24T13:20:28;100535.44;;;8.28;73.33
43161;BME280;40968;52.342;5.528;2023-02-24T13:22:56;100528.59;;;8.24;73.36
43161;BME280;40968;52.342;5.528;2023-02-24T13:25:30;100494.75;;;7.86;72.55
43161;BME280;40968;52.342;5.528;2023-02-24T13:28:00;100473.22;;;7.49;72.49